Time;durP1;ratioP1;P1;durP2;ratioP2;P2;SDS_P1;SDS_P2;PMS_P1;PMS_P2;Temp;Humidity;BMP_temperature;BMP_pressure;BME280_temperature;BME280_humidity;BME280_pressure;Samples;Min_cycle;Max_cycle;Signal;HPM_P1;HPM_P2
2022/12/03 00:00:33;;;;;;;18.08;7.90;;;5.30;99.90;;;;;;5109659;27;20110;-69
2022/12/03 00:02:59;;;;;;;14.57;6.82;;;5.40;99.90;;;;;;5127767;27;20079;-69
2022/12/03 00:05:24;;;;;;;14.90;7.07;;;5.40;99.90;;;;;;5119708;27;20026;-69
2022/12/03 00:07:50;;;;;;;13.68;6.43;;;5.40;99.90;;;;;;5134163;27;20091;-69
2022/12/03 00:10:16;;;;;;;13.55;6.85;;;5.40;99.90;;;;;;5133065;27;20033;-69
2022/12/03 00:12:41;;;;;;;13.70;6.88;;;5.40;99.90;;;;;;5119481;27;20581;-69
2022/12/03 00:15:08;;;;;;;16.40;7.10;;;5.50;99.90;;;;;;5103467;27;20070;-68
2022/12/03 00:17:34;;;;;;;18.33;6.90;;;5.50;99.90;;;;;;5118676;27;20020;-68
2022/12/03 00:19:59;;;;;;;14.32;6.57;;;5.60;99.90;;;;;;5118728;27;20038;-69
2022/12/03 00:22:25;;;;;;;13.20;6.72;;;5.70;99.90;;;;;;5139968;27;20026;-69
2022/12/03 00:24:50;;;;;;;18.48;6.82;;;5.70;99.90;;;;;;5112037;27;20087;-68
2022/12/03 00:27:16;;;;;;;16.83;7.20;;;5.60;99.90;;;;;;5098238;28;20093;-68
2022/12/03 00:29:42;;;;;;;14.57;7.22;;;5.50;99.90;;;;;;5096047;28;20027;-68
2022/12/03 00:32:07;;;;;;;15.57;7.72;;;5.60;99.90;;;;;;5104259;27;20152;-68
2022/12/03 00:34:33;;;;;;;15.20;7.55;;;5.60;99.90;;;;;;5120527;27;20114;-68
2022/12/03 00:36:58;;;;;;;17.23;8.30;;;5.60;99.90;;;;;;5104837;27;20140;-68
2022/12/03 00:39:24;;;;;;;21.08;7.78;;;5.60;99.90;;;;;;5123666;27;20057;-68
2022/12/03 00:41:49;;;;;;;18.35;7.28;;;5.70;99.90;;;;;;5106561;27;20071;-68
2022/12/03 00:44:15;;;;;;;19.27;8.00;;;5.60;99.90;;;;;;5122191;27;20546;-68
2022/12/03 00:46:41;;;;;;;15.07;7.30;;;5.60;99.90;;;;;;5111260;27;20027;-68
2022/12/03 00:49:06;;;;;;;16.98;7.60;;;5.60;99.90;;;;;;5122855;27;20114;-68
2022/12/03 00:51:32;;;;;;;14.02;7.53;;;5.60;99.90;;;;;;5129982;27;20118;-69
2022/12/03 00:53:57;;;;;;;12.88;6.97;;;5.60;99.90;;;;;;5122349;27;20053;-68
2022/12/03 00:56:23;;;;;;;16.50;7.50;;;5.70;99.90;;;;;;5137190;27;20120;-68
2022/12/03 00:58:49;;;;;;;14.25;6.78;;;5.70;99.90;;;;;;5111323;27;20042;-68
2022/12/03 01:01:15;;;;;;;23.00;8.00;;;5.80;99.90;;;;;;5113498;28;20053;-68
2022/12/03 01:03:40;;;;;;;21.02;8.00;;;5.70;99.90;;;;;;5119695;27;20041;-69
2022/12/03 01:06:06;;;;;;;22.52;8.60;;;5.70;99.90;;;;;;5115001;27;20019;-68
2022/12/03 01:08:32;;;;;;;16.92;8.57;;;5.80;99.90;;;;;;5136095;27;20070;-68
2022/12/03 01:10:57;;;;;;;14.05;8.15;;;5.80;99.90;;;;;;5138427;27;20027;-69
2022/12/03 01:13:23;;;;;;;17.58;7.75;;;5.90;99.90;;;;;;5126873;27;20038;-68
2022/12/03 01:15:48;;;;;;;15.90;8.05;;;5.90;99.90;;;;;;5112428;27;20035;-68
2022/12/03 01:18:14;;;;;;;18.55;8.43;;;6.00;99.90;;;;;;5099732;27;20042;-68
2022/12/03 01:20:40;;;;;;;17.15;8.32;;;6.00;99.90;;;;;;5096834;28;20028;-69
2022/12/03 01:23:05;;;;;;;19.80;8.32;;;6.10;99.90;;;;;;5117396;27;20019;-69
2022/12/03 01:25:31;;;;;;;18.83;9.23;;;6.10;99.90;;;;;;5132617;27;20695;-68
2022/12/03 01:27:56;;;;;;;19.08;8.85;;;6.10;99.90;;;;;;5135091;27;20030;-68
2022/12/03 01:30:22;;;;;;;18.55;7.95;;;6.10;99.90;;;;;;5119492;27;20143;-69
2022/12/03 01:32:48;;;;;;;17.75;9.10;;;6.10;99.90;;;;;;5101422;27;20024;-68
2022/12/03 01:35:13;;;;;;;21.50;8.98;;;6.10;99.90;;;;;;5107111;27;20489;-68
2022/12/03 01:37:39;;;;;;;19.00;8.73;;;6.10;99.90;;;;;;5122921;27;20027;-68
2022/12/03 01:40:07;;;;;;;17.30;8.48;;;6.10;99.90;;;;;;5137289;27;20034;-68
2022/12/03 01:42:37;;;;;;;20.83;9.23;;;6.10;99.90;;;;;;5129727;27;20026;-68
2022/12/03 01:45:03;;;;;;;21.90;10.55;;;6.00;99.90;;;;;;5128901;27;20047;-68
2022/12/03 01:47:35;;;;;;;23.92;10.77;;;6.00;99.90;;;;;;5120570;27;20106;-68
2022/12/03 01:50:05;;;;;;;24.27;10.50;;;6.00;99.90;;;;;;5100963;27;20395;-68
2022/12/03 01:52:36;;;;;;;25.45;11.13;;;6.00;99.90;;;;;;5100903;27;20033;-68
2022/12/03 01:55:04;;;;;;;22.27;10.45;;;6.00;99.90;;;;;;5112697;27;20272;-68
2022/12/03 01:57:40;;;;;;;22.83;10.25;;;6.00;99.90;;;;;;5106724;27;20044;-68
2022/12/03 02:00:06;;;;;;;27.27;11.57;;;6.00;99.90;;;;;;5078779;28;20062;-68
2022/12/03 02:02:32;;;;;;;24.10;11.40;;;5.90;99.90;;;;;;5121873;27;20830;-68
2022/12/03 02:04:59;;;;;;;26.30;11.77;;;6.00;99.90;;;;;;5120557;27;20071;-68
2022/12/03 02:07:31;;;;;;;30.70;12.95;;;5.90;99.90;;;;;;5116075;27;20449;-69
2022/12/03 02:09:59;;;;;;;27.63;12.43;;;5.90;99.90;;;;;;5140761;27;20067;-68
2022/12/03 02:12:34;;;;;;;29.70;13.48;;;5.90;99.90;;;;;;5116553;27;20143;-68
2022/12/03 02:15:02;;;;;;;25.98;12.07;;;5.90;99.90;;;;;;5129487;27;20034;-68
2022/12/03 02:17:28;;;;;;;31.50;12.57;;;5.90;99.90;;;;;;5117762;27;20062;-68
2022/12/03 02:19:55;;;;;;;34.08;13.13;;;5.90;99.90;;;;;;5114546;27;20177;-68
2022/12/03 02:22:54;;;;;;;30.52;12.45;;;5.90;99.90;;;;;;5109676;27;20053;-68
2022/12/03 02:25:22;;;;;;;28.50;11.77;;;6.00;99.90;;;;;;5099981;28;20482;-68
2022/12/03 02:27:48;;;;;;;24.88;11.70;;;6.10;99.90;;;;;;5140171;27;20065;-68
2022/12/03 02:30:17;;;;;;;26.25;11.73;;;6.00;99.90;;;;;;5118812;27;20395;-68
2022/12/03 02:32:43;;;;;;;26.73;12.20;;;6.00;99.90;;;;;;5112141;27;20042;-68
2022/12/03 02:35:17;;;;;;;24.45;11.20;;;6.00;99.90;;;;;;5117893;27;20027;-68
2022/12/03 02:37:45;;;;;;;22.45;11.18;;;6.10;99.90;;;;;;5134421;27;20027;-68
2022/12/03 02:40:20;;;;;;;26.83;12.07;;;6.00;99.90;;;;;;5138847;27;20049;-68
2022/12/03 02:42:46;;;;;;;25.02;12.02;;;6.00;99.90;;;;;;5114282;27;20027;-68
2022/12/03 02:45:16;;;;;;;23.90;12.02;;;6.00;99.90;;;;;;5100331;27;20451;-68
2022/12/03 02:48:08;;;;;;;27.02;12.35;;;6.10;99.90;;;;;;5109308;27;20026;-68
2022/12/03 02:50:38;;;;;;;24.73;10.88;;;6.00;99.90;;;;;;5123710;27;20046;-68
2022/12/03 02:53:13;;;;;;;26.20;11.63;;;6.00;99.90;;;;;;5136973;27;20163;-68
2022/12/03 02:55:39;;;;;;;29.75;11.93;;;6.00;99.90;;;;;;5127338;27;20142;-68
2022/12/03 02:58:06;;;;;;;27.58;11.80;;;5.90;99.90;;;;;;5109071;27;22603;-68
2022/12/03 03:00:32;;;;;;;22.30;11.10;;;5.90;99.90;;;;;;5097896;27;20566;-68
2022/12/03 03:02:59;;;;;;;26.30;11.43;;;5.80;99.90;;;;;;5119145;27;20019;-68
2022/12/03 03:05:25;;;;;;;28.63;11.20;;;5.90;99.90;;;;;;5131796;27;20037;-68
2022/12/03 03:07:50;;;;;;;33.03;11.45;;;5.90;99.90;;;;;;5087566;27;20031;-68
2022/12/03 03:10:19;;;;;;;23.00;10.52;;;5.90;99.90;;;;;;5125960;27;20331;-68
2022/12/03 03:12:45;;;;;;;27.95;11.88;;;5.90;99.90;;;;;;5117058;27;20091;-68
2022/12/03 03:15:12;;;;;;;23.10;11.63;;;5.80;99.90;;;;;;5097026;27;20249;-68
2022/12/03 03:17:39;;;;;;;22.70;11.07;;;5.80;99.90;;;;;;5096036;28;20023;-68
2022/12/03 03:20:06;;;;;;;25.13;12.15;;;5.90;99.90;;;;;;5119888;27;20049;-68
2022/12/03 03:22:40;;;;;;;28.65;11.63;;;5.90;99.90;;;;;;5114579;27;20509;-68
2022/12/03 03:25:09;;;;;;;28.13;11.93;;;5.80;99.90;;;;;;5106032;27;20186;-68
2022/12/03 03:27:35;;;;;;;24.83;11.57;;;5.80;99.90;;;;;;5075366;28;20035;-68
2022/12/03 03:30:02;;;;;;;25.60;11.75;;;5.80;99.90;;;;;;5114460;27;20504;-68
2022/12/03 03:32:29;;;;;;;25.40;10.43;;;5.80;99.90;;;;;;5105067;27;20082;-68
2022/12/03 03:34:55;;;;;;;27.95;10.82;;;6.00;99.90;;;;;;5112435;27;20034;-68
2022/12/03 03:37:21;;;;;;;26.50;11.43;;;5.90;99.90;;;;;;5114111;27;20035;-68
2022/12/03 03:39:47;;;;;;;25.42;10.60;;;5.90;99.90;;;;;;5121110;27;20490;-68
2022/12/03 03:42:13;;;;;;;27.75;11.05;;;6.00;99.90;;;;;;5097354;27;20023;-68
2022/12/03 03:44:39;;;;;;;27.23;10.45;;;5.90;99.90;;;;;;5105162;27;20234;-68
2022/12/03 03:47:05;;;;;;;24.48;11.35;;;5.90;99.90;;;;;;5094021;27;20035;-68
2022/12/03 03:49:30;;;;;;;27.05;12.18;;;5.90;99.90;;;;;;5112860;27;20118;-68
2022/12/03 03:51:56;;;;;;;26.25;12.82;;;6.00;99.90;;;;;;5135488;27;20038;-68
2022/12/03 03:54:22;;;;;;;27.65;11.82;;;5.90;99.90;;;;;;5129419;27;20122;-68
2022/12/03 03:56:48;;;;;;;25.88;12.38;;;5.80;99.90;;;;;;5099644;27;20031;-68
2022/12/03 03:59:14;;;;;;;23.90;11.02;;;5.90;99.90;;;;;;5127068;27;20035;-68
2022/12/03 04:01:42;;;;;;;26.88;11.90;;;5.90;99.90;;;;;;5100992;27;20030;-68
2022/12/03 04:04:18;;;;;;;24.42;11.13;;;5.90;99.90;;;;;;5104708;27;20398;-68
2022/12/03 04:06:43;;;;;;;27.92;11.95;;;5.80;99.90;;;;;;5109012;27;20549;-68
2022/12/03 04:09:09;;;;;;;25.95;11.13;;;5.80;99.90;;;;;;5124193;27;20260;-68
2022/12/03 04:14:18;;;;;;;27.60;10.13;;;5.80;99.90;;;;;;5133512;27;20090;-68
2022/12/03 04:16:44;;;;;;;24.67;11.50;;;5.70;99.90;;;;;;5131293;27;20126;-68
2022/12/03 04:19:10;;;;;;;28.90;12.20;;;5.60;99.90;;;;;;5128096;27;20522;-68
2022/12/03 04:24:19;;;;;;;28.45;11.77;;;5.70;99.90;;;;;;5115145;27;20120;-68
2022/12/03 04:29:29;;;;;;;26.92;11.30;;;5.70;99.90;;;;;;5106437;27;20046;-68
2022/12/03 04:37:23;;;;;;;27.52;10.93;;;5.60;99.90;;;;;;5125142;27;20045;-68
2022/12/03 04:39:49;;;;;;;25.90;11.50;;;5.50;99.90;;;;;;5130669;27;20114;-68
2022/12/03 04:42:14;;;;;;;21.70;9.63;;;5.50;99.90;;;;;;5118811;27;20038;-68
2022/12/03 04:44:40;;;;;;;27.45;11.43;;;5.50;99.90;;;;;;5136937;27;20373;-68
2022/12/03 04:47:07;;;;;;;23.67;10.80;;;5.60;99.90;;;;;;5106845;27;20390;-68
2022/12/03 04:49:35;;;;;;;30.48;11.90;;;5.60;99.90;;;;;;5114617;27;20388;-68
2022/12/03 04:52:01;;;;;;;27.20;10.65;;;5.50;99.90;;;;;;5125928;27;20061;-68
2022/12/03 04:54:27;;;;;;;28.90;12.00;;;5.60;99.90;;;;;;5114971;27;20038;-68
2022/12/03 04:56:53;;;;;;;32.00;11.07;;;5.50;99.90;;;;;;5101726;27;20031;-68
2022/12/03 04:59:19;;;;;;;28.63;11.02;;;5.50;99.90;;;;;;5104645;27;20057;-68
2022/12/03 05:01:45;;;;;;;27.42;12.25;;;5.50;99.90;;;;;;5134067;27;20062;-67
2022/12/03 05:04:12;;;;;;;28.83;11.60;;;5.60;99.90;;;;;;5123392;27;20039;-69
2022/12/03 05:06:38;;;;;;;29.85;11.07;;;5.60;99.90;;;;;;5126473;27;20192;-68
2022/12/03 05:09:04;;;;;;;26.38;10.90;;;5.60;99.90;;;;;;5135713;27;20164;-68
2022/12/03 05:11:29;;;;;;;28.48;11.70;;;5.60;99.90;;;;;;5129905;27;20902;-68
2022/12/03 05:13:55;;;;;;;27.45;9.82;;;5.70;99.90;;;;;;5122200;27;20231;-68
2022/12/03 05:16:21;;;;;;;31.52;11.85;;;5.70;99.90;;;;;;5114929;27;20113;-68
2022/12/03 05:18:47;;;;;;;31.52;11.45;;;5.70;99.90;;;;;;5119185;27;20405;-68
2022/12/03 05:21:12;;;;;;;33.00;11.55;;;5.70;99.90;;;;;;5099973;27;20027;-67
2022/12/03 05:23:38;;;;;;;26.05;11.88;;;5.70;99.90;;;;;;5123410;27;20138;-68
2022/12/03 05:26:04;;;;;;;29.00;11.80;;;5.70;99.90;;;;;;5127129;27;20020;-67
2022/12/03 05:28:29;;;;;;;28.15;11.82;;;5.80;99.90;;;;;;5128861;27;20063;-67
2022/12/03 05:30:55;;;;;;;29.42;12.20;;;5.80;99.90;;;;;;5112200;27;20560;-67
2022/12/03 05:33:20;;;;;;;28.42;11.57;;;5.80;99.90;;;;;;5133676;27;20215;-67
2022/12/03 05:35:46;;;;;;;33.78;12.98;;;5.80;99.90;;;;;;5112328;27;20027;-67
2022/12/03 05:38:12;;;;;;;32.40;12.57;;;5.80;99.90;;;;;;5121118;27;20031;-68
2022/12/03 05:40:38;;;;;;;28.85;12.07;;;5.80;99.90;;;;;;5123296;27;20481;-68
2022/12/03 05:43:04;;;;;;;30.60;12.23;;;5.80;99.90;;;;;;5111675;27;20107;-68
2022/12/03 05:45:32;;;;;;;29.40;12.48;;;5.80;99.90;;;;;;5115788;27;20035;-68
2022/12/03 05:47:58;;;;;;;30.40;13.70;;;5.80;99.90;;;;;;5122081;27;20027;-67
2022/12/03 05:50:27;;;;;;;32.05;12.65;;;5.80;99.90;;;;;;5104152;27;20033;-68
2022/12/03 05:52:52;;;;;;;35.00;13.90;;;5.70;99.90;;;;;;5136972;27;20242;-68
2022/12/03 05:55:19;;;;;;;32.45;13.25;;;5.70;99.90;;;;;;5117007;27;20276;-68
2022/12/03 05:57:44;;;;;;;28.90;12.20;;;5.70;99.90;;;;;;5120754;27;20787;-68
2022/12/03 06:00:19;;;;;;;39.03;15.07;;;5.70;99.90;;;;;;5119358;27;20902;-68
2022/12/03 06:02:45;;;;;;;33.72;13.80;;;5.70;99.90;;;;;;5133805;27;20180;-67
2022/12/03 06:05:12;;;;;;;33.47;14.35;;;5.70;99.90;;;;;;5114361;27;20107;-68
2022/12/03 06:07:38;;;;;;;31.08;12.63;;;5.60;99.90;;;;;;5099268;27;20380;-68
2022/12/03 06:10:05;;;;;;;33.78;13.05;;;5.70;99.90;;;;;;5135571;27;20026;-67
2022/12/03 06:12:31;;;;;;;33.97;13.55;;;5.70;99.90;;;;;;5141603;27;20508;-68
2022/12/03 06:14:56;;;;;;;29.48;12.13;;;5.60;99.90;;;;;;5121432;27;20107;-68
2022/12/03 06:17:22;;;;;;;34.40;12.52;;;5.60;99.90;;;;;;5116934;27;20031;-67
2022/12/03 06:19:48;;;;;;;33.63;13.48;;;5.60;99.90;;;;;;5117437;27;20680;-68
2022/12/03 06:22:14;;;;;;;33.78;11.68;;;5.60;99.90;;;;;;5115424;27;20106;-68
2022/12/03 06:24:39;;;;;;;37.35;14.98;;;5.50;99.90;;;;;;5130060;27;20102;-67
2022/12/03 06:27:05;;;;;;;31.75;12.80;;;5.50;99.90;;;;;;5122269;27;20058;-68
2022/12/03 06:29:30;;;;;;;33.33;14.02;;;5.50;99.90;;;;;;5116146;27;20023;-68
2022/12/03 06:31:56;;;;;;;30.70;13.20;;;5.50;99.90;;;;;;5116365;27;20605;-68
2022/12/03 06:34:22;;;;;;;29.23;13.18;;;5.50;99.90;;;;;;5134119;27;20045;-67
2022/12/03 06:36:49;;;;;;;39.70;14.75;;;5.50;99.90;;;;;;5103641;27;20513;-68
2022/12/03 06:39:15;;;;;;;38.00;14.95;;;5.50;99.90;;;;;;5092248;27;20126;-68
2022/12/03 06:41:40;;;;;;;34.97;13.70;;;5.50;99.90;;;;;;5114191;27;20118;-68
2022/12/03 06:44:06;;;;;;;36.25;14.13;;;5.50;99.90;;;;;;5093828;27;20178;-68
2022/12/03 06:46:32;;;;;;;30.08;12.65;;;5.50;99.90;;;;;;5133690;27;20553;-68
2022/12/03 06:48:57;;;;;;;29.77;12.27;;;5.60;99.90;;;;;;5133462;27;20034;-68
2022/12/03 06:51:23;;;;;;;35.20;13.18;;;5.50;99.90;;;;;;5137961;27;20050;-68
2022/12/03 06:53:48;;;;;;;27.52;11.57;;;5.50;99.90;;;;;;5127334;27;20101;-68
2022/12/03 06:56:14;;;;;;;36.00;13.98;;;5.50;99.90;;;;;;5100221;27;20058;-68
2022/12/03 06:58:40;;;;;;;36.60;13.75;;;5.50;99.90;;;;;;5103018;27;20086;-68
2022/12/03 07:01:05;;;;;;;31.25;12.45;;;5.50;99.90;;;;;;5094316;27;20096;-68
2022/12/03 07:03:31;;;;;;;32.40;12.88;;;5.50;99.90;;;;;;5111510;27;20054;-68
2022/12/03 07:05:56;;;;;;;31.35;12.80;;;5.50;99.90;;;;;;5109534;27;20086;-68
2022/12/03 07:08:22;;;;;;;32.25;13.20;;;5.50;99.90;;;;;;5096717;27;20554;-68
2022/12/03 07:10:48;;;;;;;30.73;13.77;;;5.50;99.90;;;;;;5080806;27;20023;-68
2022/12/03 07:13:13;;;;;;;32.78;12.57;;;5.60;99.90;;;;;;5118944;27;20035;-68
2022/12/03 07:15:39;;;;;;;29.38;12.50;;;5.50;99.90;;;;;;5100491;27;20093;-68
2022/12/03 07:18:04;;;;;;;36.72;12.90;;;5.50;99.90;;;;;;5115686;27;20112;-68
2022/12/03 07:20:30;;;;;;;33.70;12.55;;;5.50;99.90;;;;;;5114131;27;20026;-68
2022/12/03 07:22:56;;;;;;;33.40;12.93;;;5.60;99.90;;;;;;5104241;27;20027;-69
2022/12/03 07:25:21;;;;;;;29.20;11.82;;;5.60;99.90;;;;;;5117355;27;20030;-68
2022/12/03 07:27:47;;;;;;;29.65;12.43;;;5.60;99.90;;;;;;5120290;27;20533;-69
2022/12/03 07:30:14;;;;;;;30.65;12.68;;;5.60;99.90;;;;;;5105554;27;20024;-69
2022/12/03 07:32:39;;;;;;;32.42;12.80;;;5.60;99.90;;;;;;5116269;27;20058;-68
2022/12/03 07:35:06;;;;;;;28.00;12.57;;;5.60;99.90;;;;;;5131313;27;20145;-69
2022/12/03 07:37:32;;;;;;;37.15;14.18;;;5.60;99.90;;;;;;5112829;27;20019;-69
2022/12/03 07:39:58;;;;;;;36.67;13.77;;;5.60;99.90;;;;;;5121381;27;20045;-69
2022/12/03 07:42:24;;;;;;;30.98;13.45;;;5.60;99.90;;;;;;5115316;27;20027;-68
2022/12/03 07:44:50;;;;;;;28.88;13.00;;;5.60;99.90;;;;;;5099934;27;20500;-69
2022/12/03 07:47:16;;;;;;;31.55;13.40;;;5.60;99.90;;;;;;5110048;27;20102;-69
2022/12/03 07:49:41;;;;;;;29.40;12.82;;;5.60;99.90;;;;;;5130956;27;20023;-69
2022/12/03 07:52:07;;;;;;;25.77;11.02;;;5.70;99.90;;;;;;5125194;27;20031;-69
2022/12/03 07:54:33;;;;;;;31.45;13.45;;;5.70;99.90;;;;;;5119037;27;20106;-69
2022/12/03 07:56:59;;;;;;;32.90;13.27;;;5.70;99.90;;;;;;5107048;27;20111;-69
2022/12/03 07:59:24;;;;;;;34.80;13.55;;;5.70;99.90;;;;;;5097019;28;20039;-69
2022/12/03 08:01:50;;;;;;;28.35;11.43;;;5.70;99.90;;;;;;5121067;27;20023;-69
2022/12/03 08:04:17;;;;;;;27.05;11.93;;;5.80;99.90;;;;;;5115539;27;20416;-69
2022/12/03 08:06:46;;;;;;;33.97;13.77;;;5.80;99.90;;;;;;5113219;27;20102;-68
2022/12/03 08:09:12;;;;;;;28.73;12.25;;;5.70;99.90;;;;;;5108516;27;20080;-69
2022/12/03 08:11:38;;;;;;;28.00;11.15;;;5.80;99.90;;;;;;5134272;27;20027;-69
2022/12/03 08:14:12;;;;;;;30.60;11.30;;;5.80;99.90;;;;;;5108105;27;20141;-68
2022/12/03 08:16:39;;;;;;;29.67;11.55;;;5.90;99.90;;;;;;5104131;27;20031;-69
2022/12/03 08:19:10;;;;;;;30.75;11.25;;;6.00;99.90;;;;;;5103987;27;20046;-68
2022/12/03 08:21:36;;;;;;;27.98;10.07;;;5.90;99.90;;;;;;5104865;27;20036;-69
2022/12/03 08:24:29;;;;;;;25.35;10.77;;;5.90;99.90;;;;;;5100466;28;20104;-68
2022/12/03 08:26:56;;;;;;;22.98;9.68;;;6.00;99.90;;;;;;5103714;28;20111;-69
2022/12/03 08:29:23;;;;;;;21.70;9.55;;;6.00;99.90;;;;;;5096579;28;20035;-69
2022/12/03 08:31:50;;;;;;;24.25;10.73;;;6.00;99.90;;;;;;5110329;27;20838;-69
2022/12/03 08:34:26;;;;;;;22.80;10.07;;;6.00;99.90;;;;;;5107039;27;20040;-68
2022/12/03 08:36:58;;;;;;;28.40;10.77;;;6.00;99.90;;;;;;5123942;27;20132;-68
2022/12/03 08:39:43;;;;;;;28.13;10.63;;;6.10;99.90;;;;;;5109710;27;20031;-68
2022/12/03 08:45:38;;;;;;;22.33;9.85;;;6.10;99.90;;;;;;5119681;27;20489;-68
2022/12/03 08:48:24;;;;;;;23.88;9.77;;;6.10;99.90;;;;;;5128837;27;20024;-69
2022/12/03 08:50:51;;;;;;;22.42;10.18;;;6.20;99.90;;;;;;5108626;27;20034;-69
2022/12/03 08:53:30;;;;;;;20.95;8.73;;;6.20;99.90;;;;;;5090270;27;20274;-69
2022/12/03 08:56:01;;;;;;;20.33;9.82;;;6.30;99.90;;;;;;5106305;27;20024;-69
2022/12/03 08:58:40;;;;;;;27.13;10.02;;;6.40;99.90;;;;;;5103937;27;20047;-69
2022/12/03 09:01:25;;;;;;;22.35;9.90;;;6.40;99.90;;;;;;5116030;27;20034;-69
2022/12/03 09:03:53;;;;;;;24.05;10.27;;;6.50;99.90;;;;;;5136106;27;20023;-69
2022/12/03 09:06:19;;;;;;;22.90;9.38;;;6.50;99.90;;;;;;5124733;27;20054;-69
2022/12/03 09:08:45;;;;;;;16.23;8.48;;;6.50;99.90;;;;;;5123849;27;20109;-68
2022/12/03 09:11:12;;;;;;;22.88;8.65;;;6.60;99.90;;;;;;5111043;27;20061;-69
2022/12/03 09:13:37;;;;;;;21.02;8.70;;;6.60;99.90;;;;;;5101415;27;20402;-69
2022/12/03 09:16:03;;;;;;;25.38;10.23;;;6.60;99.90;;;;;;5112664;27;20023;-68
2022/12/03 09:18:29;;;;;;;18.75;8.15;;;6.60;99.90;;;;;;5120833;27;20040;-69
2022/12/03 09:20:55;;;;;;;21.33;9.00;;;6.60;99.90;;;;;;5088530;27;20050;-68
2022/12/03 09:23:22;;;;;;;19.58;8.38;;;6.70;99.90;;;;;;5112339;27;20586;-69
2022/12/03 09:25:47;;;;;;;19.65;7.78;;;6.70;99.90;;;;;;5117953;27;20039;-68
2022/12/03 09:28:13;;;;;;;19.77;9.30;;;6.70;99.90;;;;;;5120104;27;20019;-69
2022/12/03 09:30:38;;;;;;;19.20;8.93;;;6.70;99.90;;;;;;5100649;27;20058;-68
2022/12/03 09:33:04;;;;;;;20.38;9.60;;;6.70;99.90;;;;;;5109631;27;20071;-69
2022/12/03 09:35:30;;;;;;;18.23;8.95;;;6.70;99.90;;;;;;5115824;27;20035;-69
2022/12/03 09:37:55;;;;;;;17.55;9.23;;;6.60;99.90;;;;;;5101395;27;20519;-69
2022/12/03 09:40:21;;;;;;;18.98;9.00;;;6.70;99.90;;;;;;5117996;27;20035;-69
2022/12/03 09:42:48;;;;;;;19.60;8.68;;;6.70;99.90;;;;;;5106885;27;20095;-68
2022/12/03 09:45:15;;;;;;;18.58;8.77;;;6.70;99.90;;;;;;5114604;27;20030;-68
2022/12/03 09:47:45;;;;;;;15.90;8.30;;;6.80;99.90;;;;;;5112827;27;20066;-68
2022/12/03 09:50:18;;;;;;;25.30;9.23;;;6.70;99.90;;;;;;5110959;27;20545;-68
2022/12/03 09:52:44;;;;;;;17.88;7.78;;;6.70;99.90;;;;;;5116549;27;20304;-69
2022/12/03 09:55:16;;;;;;;19.85;8.32;;;6.80;99.90;;;;;;5118456;27;20027;-68
2022/12/03 09:57:42;;;;;;;17.02;7.95;;;6.80;99.90;;;;;;5114709;27;20048;-69
2022/12/03 10:00:17;;;;;;;15.43;8.35;;;6.80;99.90;;;;;;5118336;27;20046;-69
2022/12/03 10:02:44;;;;;;;21.33;8.65;;;6.60;99.90;;;;;;5093044;27;20531;-68
2022/12/03 10:05:10;;;;;;;18.83;8.15;;;6.70;99.90;;;;;;5101560;27;20180;-68
2022/12/03 10:07:36;;;;;;;19.42;9.02;;;6.80;99.90;;;;;;5118278;27;20548;-68
2022/12/03 10:10:01;;;;;;;19.55;8.48;;;6.70;99.90;;;;;;5112088;27;20180;-68
2022/12/03 10:12:27;;;;;;;20.65;8.05;;;6.70;99.90;;;;;;5086328;27;20059;-68
2022/12/03 10:14:54;;;;;;;20.23;8.55;;;6.70;99.90;;;;;;5103102;27;20405;-68
2022/12/03 10:17:19;;;;;;;20.83;8.45;;;6.70;99.90;;;;;;5123408;27;20030;-68
2022/12/03 10:19:45;;;;;;;23.70;8.00;;;6.80;99.90;;;;;;5126996;27;20047;-68
2022/12/03 10:22:11;;;;;;;19.98;7.82;;;6.80;99.90;;;;;;5114353;27;20333;-68
2022/12/03 10:24:37;;;;;;;17.45;7.47;;;6.90;99.90;;;;;;5116993;27;20036;-68
2022/12/03 10:27:23;;;;;;;17.08;8.77;;;6.90;99.90;;;;;;5116816;27;20231;-68
2022/12/03 10:29:55;;;;;;;18.55;8.73;;;6.80;99.90;;;;;;5128970;27;20146;-68
2022/12/03 10:32:26;;;;;;;19.67;9.25;;;6.80;99.90;;;;;;5117462;27;20452;-68
2022/12/03 10:35:07;;;;;;;21.73;9.07;;;6.80;99.90;;;;;;5115360;27;20118;-68
2022/12/03 10:37:32;;;;;;;21.65;8.68;;;6.70;99.90;;;;;;5119743;27;20029;-68
2022/12/03 10:39:58;;;;;;;19.48;9.10;;;6.70;99.90;;;;;;5118676;27;20035;-68
2022/12/03 10:42:26;;;;;;;22.40;9.48;;;6.70;99.90;;;;;;5112588;27;20538;-68
2022/12/03 10:45:24;;;;;;;22.48;9.60;;;6.70;99.90;;;;;;5080406;28;20130;-68
2022/12/03 10:48:15;;;;;;;23.90;9.02;;;6.70;99.90;;;;;;5071812;27;20453;-68
2022/12/03 10:50:52;;;;;;;24.08;9.52;;;6.70;99.90;;;;;;5114940;27;20371;-68
2022/12/03 10:53:26;;;;;;;22.73;9.05;;;6.80;99.90;;;;;;5108777;27;20513;-68
2022/12/03 10:55:57;;;;;;;19.48;8.82;;;6.80;99.90;;;;;;5111722;27;20031;-69
2022/12/03 10:58:25;;;;;;;19.17;9.35;;;6.70;99.90;;;;;;5109880;27;20133;-70
2022/12/03 11:00:53;;;;;;;17.02;8.40;;;6.80;99.90;;;;;;5108705;27;20542;-69
2022/12/03 11:03:27;;;;;;;18.73;8.57;;;6.80;99.90;;;;;;5107361;27;20409;-68
2022/12/03 11:05:54;;;;;;;19.10;9.00;;;6.80;99.90;;;;;;5103465;27;20308;-69
2022/12/03 11:08:23;;;;;;;24.63;9.85;;;6.80;99.90;;;;;;5104816;27;20094;-68
2022/12/03 11:11:01;;;;;;;22.92;9.82;;;6.80;99.90;;;;;;5113859;27;20143;-68
2022/12/03 11:13:44;;;;;;;19.02;9.80;;;6.80;99.90;;;;;;5111263;27;20029;-68
2022/12/03 11:16:11;;;;;;;19.95;9.70;;;6.70;99.90;;;;;;5121098;27;20028;-68
2022/12/03 11:18:36;;;;;;;22.92;9.68;;;6.70;99.90;;;;;;5120480;27;20031;-68
2022/12/03 11:21:13;;;;;;;22.33;9.75;;;6.70;99.90;;;;;;5133741;27;20522;-68
2022/12/03 11:23:44;;;;;;;23.35;10.60;;;6.70;99.90;;;;;;5105491;27;20889;-68
2022/12/03 11:26:16;;;;;;;;;;;6.70;99.90;;;;;;5107921;27;20035;-68
2022/12/03 11:28:44;;;;;;;21.83;9.82;;;6.70;99.90;;;;;;5103794;27;20844;-68
2022/12/03 11:31:46;;;;;;;18.67;9.43;;;6.80;99.90;;;;;;5107227;27;20142;-68
2022/12/03 11:34:20;;;;;;;20.58;10.30;;;6.70;99.90;;;;;;5102560;27;20038;-68
2022/12/03 11:37:11;;;;;;;21.60;10.00;;;6.80;99.90;;;;;;5104273;27;20067;-68
2022/12/03 11:39:48;;;;;;;19.23;9.80;;;6.80;99.90;;;;;;5108454;27;20846;-68
2022/12/03 11:42:26;;;;;;;19.58;9.82;;;6.90;99.90;;;;;;5113400;27;20110;-68
2022/12/03 11:45:04;;;;;;;20.73;9.45;;;7.00;99.90;;;;;;5117270;27;20033;-68
2022/12/03 11:47:32;;;;;;;24.65;10.65;;;7.10;99.90;;;;;;5099729;27;20027;-69
2022/12/03 11:49:58;;;;;;;21.58;10.18;;;7.20;99.90;;;;;;5098336;27;20057;-68
2022/12/03 11:52:38;;;;;;;26.45;11.07;;;7.30;99.90;;;;;;5104079;27;20129;-68
2022/12/03 11:55:29;;;;;;;20.90;10.20;;;7.20;99.90;;;;;;5116167;27;20172;-68
2022/12/03 11:58:04;;;;;;;20.73;10.18;;;7.20;99.90;;;;;;5115355;27;20204;-68
2022/12/03 12:00:30;;;;;;;22.52;10.65;;;7.20;99.90;;;;;;5103359;27;20149;-68
2022/12/03 12:02:57;;;;;;;20.90;10.65;;;7.20;99.90;;;;;;5107385;27;20113;-67
2022/12/03 12:05:26;;;;;;;22.85;10.23;;;7.20;99.90;;;;;;5115606;27;20463;-68
2022/12/03 12:07:52;;;;;;;24.42;10.38;;;7.10;99.90;;;;;;5113084;27;20039;-68
2022/12/03 12:10:37;;;;;;;25.40;10.20;;;7.10;99.90;;;;;;5132319;27;20113;-68
2022/12/03 12:13:03;;;;;;;24.77;10.73;;;7.10;99.90;;;;;;5114990;27;20019;-68
2022/12/03 12:15:41;;;;;;;23.67;11.80;;;7.00;99.90;;;;;;5113179;27;20561;-68
2022/12/03 12:18:34;;;;;;;26.90;11.68;;;7.00;99.90;;;;;;5110635;27;20670;-68
2022/12/03 12:21:41;;;;;;;23.42;12.10;;;7.00;99.90;;;;;;5102092;27;20031;-67
2022/12/03 12:24:31;;;;;;;30.13;12.07;;;7.00;99.90;;;;;;5093729;27;20066;-68
2022/12/03 12:26:59;;;;;;;25.73;12.55;;;6.90;99.90;;;;;;5107125;27;20505;-67
2022/12/03 12:29:25;;;;;;;24.95;11.63;;;6.90;99.90;;;;;;5112010;27;20159;-67
2022/12/03 12:31:57;;;;;;;28.40;12.80;;;6.80;99.90;;;;;;5099405;27;20028;-67
2022/12/03 12:34:23;;;;;;;27.52;12.65;;;6.80;99.90;;;;;;5080097;28;20039;-67
2022/12/03 12:36:49;;;;;;;27.80;12.23;;;6.90;99.90;;;;;;5101598;28;20127;-67
2022/12/03 12:39:15;;;;;;;28.98;13.00;;;6.90;99.90;;;;;;5118388;28;20038;-67
2022/12/03 12:41:41;;;;;;;27.27;13.40;;;6.90;99.90;;;;;;5117472;27;20035;-67
2022/12/03 12:44:09;;;;;;;31.17;13.57;;;6.80;99.90;;;;;;5097911;28;20105;-67
2022/12/03 12:46:36;;;;;;;30.75;14.60;;;6.70;99.90;;;;;;5113780;27;20562;-67
2022/12/03 12:49:10;;;;;;;31.98;14.10;;;6.70;99.90;;;;;;5113735;27;20042;-67
2022/12/03 12:51:45;;;;;;;30.52;15.93;;;6.60;99.90;;;;;;5102053;28;20562;-67
2022/12/03 12:54:13;;;;;;;34.78;15.65;;;6.60;99.90;;;;;;5106018;28;20054;-67
2022/12/03 12:56:41;;;;;;;28.98;14.43;;;6.60;99.90;;;;;;5113929;27;20107;-67
2022/12/03 12:59:19;;;;;;;29.77;13.88;;;6.60;99.90;;;;;;5106610;27;20130;-67
2022/12/03 13:01:47;;;;;;;32.75;15.25;;;6.60;99.90;;;;;;5112121;27;20022;-68
2022/12/03 13:04:21;;;;;;;28.73;13.88;;;6.60;99.90;;;;;;5104950;27;20055;-67